Flight Track Log - Related Links

Times and Time Zones

All times are in EDT time to prevent confusion due to time zone crossing. See the EJM916 flight status page for this flight to view local times or setup timezone preferences in your user account.

Time Position Orientation Groundspeed Altitude Reporting Facility
EDT Latitude Longitude Course Direction KTS MPH feet Rate Location/Type
Mon 11:10:00 34.6054 -105.5025 78° East  Level Estimated
Mon 11:11:00 34.6182 -105.3998 81° East  Level Estimated
Mon 11:12:00 34.6310 -105.2971 81° East  Level Estimated
Mon 11:13:00 34.6437 -105.1944 81° East  Level Estimated
Mon 11:14:00 34.6563 -105.0916 81° East  Level Estimated
Mon 11:15:00 34.6688 -104.9887 82° East  Level Estimated
Mon 11:16:00 34.6813 -104.8859 82° East  Level Estimated
Mon 11:17:00 34.6936 -104.7830 82° East  Level Estimated
Mon 11:18:00 34.7059 -104.6801 82° East  Level Estimated
Mon 11:19:00 34.7180 -104.5772 82° East  Level Estimated
Mon 11:20:00 34.7301 -104.4742 82° East  Level Estimated
Mon 11:21:00 34.7421 -104.3712 82° East  Level Estimated
Mon 11:22:00 34.7540 -104.2682 82° East  Level Estimated
Mon 11:23:00 34.7659 -104.1651 82° East  Level Estimated
Mon 11:24:00 34.7770 -104.0672 82° East  Level Estimated
Mon 11:25:00 34.7881 -103.9694 82° East  Level Estimated
Mon 11:26:00 34.7991 -103.8714 82° East  Level Estimated
Mon 11:27:00 34.8100 -103.7735 82° East  Level Estimated
Mon 11:28:00 34.8208 -103.6755 82° East  Level Estimated
Mon 11:29:00 34.8316 -103.5775 82° East  Level Estimated
Mon 11:30:00 34.8422 -103.4795 82° East  Level Estimated
Mon 11:31:00 34.8528 -103.3814 82° East  Level Estimated
Mon 11:32:00 34.8634 -103.2834 83° East  Level Estimated
Mon 11:33:00 34.8738 -103.1853 83° East  Level Estimated
Mon 11:34:00 34.8842 -103.0872 83° East  Level Estimated
Mon 11:35:00 34.8944 -102.9890 83° East  Level Estimated
Mon 11:36:00 34.9039 -102.8981 83° East  Level Estimated
Mon 11:37:00 34.9133 -102.8071 83° East  Level Estimated
Mon 11:38:00 34.9226 -102.7162 83° East  Level Estimated
Mon 11:39:00 34.9318 -102.6252 83° East  Level Estimated
Mon 11:40:00 34.9410 -102.5343 83° East  Level Estimated
Mon 11:41:00 34.9501 -102.4437 83° East  Level Estimated
Mon 11:42:00 34.9591 -102.3531 83° East  Level Estimated
Mon 11:43:00 34.9680 -102.2625 83° East  Level Estimated
Mon 11:44:00 34.9769 -102.1718 83° East  Level Estimated
Mon 11:45:00 34.9857 -102.0812 83° East  Level Estimated
Mon 11:46:00 34.9944 -101.9905 83° East  Level Estimated
Mon 11:47:00 35.0031 -101.8998 83° East  Level Estimated
Mon 11:48:00 35.0117 -101.8091 83° East  Level Estimated
Mon 11:49:00 35.0202 -101.7183 83° East  Level Estimated
Mon 11:50:00 35.0287 -101.6276 83° East  Level Estimated
Mon 11:51:00 35.0371 -101.5368 84° East  Level Estimated
Mon 11:52:00 35.0454 -101.4460 84° East  Level Estimated
Mon 11:53:00 35.0536 -101.3552 84° East  Level Estimated
Mon 11:54:00 35.0618 -101.2644 84° East  Level Estimated
Mon 11:55:00 35.0700 -101.1735 84° East  Level Estimated
Mon 11:56:00 35.0780 -101.0826 84° East  Level Estimated
Mon 11:57:00 35.0860 -100.9917 84° East  Level Estimated
Mon 11:58:00 35.0939 -100.9008 84° East  Level Estimated
Mon 11:59:00 35.1018 -100.8099 84° East  Level Estimated
Mon 12:00:00 35.1096 -100.7190 84° East  Level Estimated
Mon 12:01:00 35.1173 -100.6280 84° East  Level Estimated
Mon 12:02:00 35.1249 -100.5370 84° East  Level Estimated
Mon 12:03:00 35.1325 -100.4461 84° East  Level Estimated
Mon 12:04:00 35.1400 -100.3550 84° East  Level Estimated
Mon 12:05:00 35.1475 -100.2640 84° East  Level Estimated
Mon 12:06:00 35.1549 -100.1730 84° East  Level Estimated
Mon 12:07:00 35.1622 -100.0819 84° East  Level Estimated
Mon 12:08:00 35.1694 -99.9908 84° East  Level Estimated
Mon 12:09:00 35.1766 -99.8997 84° East  Level Estimated
Mon 12:10:00 35.1837 -99.8086 85° East  Level Estimated
Mon 12:11:00 35.1907 -99.7175 85° East  Level Estimated
Mon 12:12:00 35.1977 -99.6264 85° East  Level Estimated
Mon 12:13:00 35.2046 -99.5352 85° East  Level Estimated
Mon 12:14:00 35.2114 -99.4441 85° East  Level Estimated
Mon 12:15:00 35.2182 -99.3529 85° East  Level Estimated
Mon 12:16:00 35.2249 -99.2617 85° East  Level Estimated
Mon 12:17:00 35.2315 -99.1705 85° East  Level Estimated
Mon 12:18:00 35.2380 -99.0792 85° East  Level Estimated
Mon 12:19:00 35.2445 -98.9880 85° East  Level Estimated
Mon 12:20:00 35.2510 -98.8967 85° East  Level Estimated
Mon 12:21:00 35.2573 -98.8055 85° East  Level Estimated
Mon 12:22:00 35.2636 -98.7142 85° East  Level Estimated
Mon 12:23:00 35.2698 -98.6229 85° East  Level Estimated
Mon 12:24:00 35.2760 -98.5316 85° East  Level Estimated
Mon 12:25:00 35.2820 -98.4402 85° East  Level Estimated
Mon 12:26:00 35.2881 -98.3489 85° East  Level Estimated
Mon 12:27:00 35.2940 -98.2575 85° East  Level Estimated
Mon 12:28:00 35.2999 -98.1662 85° East  Level Estimated
Mon 12:29:00 35.3057 -98.0748 86° East  Level Estimated
Mon 12:30:00 35.3114 -97.9834 86° East  Level Estimated
Mon 12:31:00 35.3171 -97.8920 86° East  Level Estimated
Mon 12:32:00 35.3227 -97.8006 86° East  Level Estimated
Mon 12:33:00 35.3282 -97.7091 86° East  Level Estimated
Mon 12:34:00 35.3336 -97.6177 86° East  Level Estimated
Mon 12:35:00 35.3390 -97.5262 86° East  Level Estimated
Mon 12:36:00 35.3444 -97.4347 86° East  Level Estimated
Mon 12:37:00 35.3496 -97.3433 86° East  Level Estimated
Mon 12:38:00 35.3548 -97.2518 86° East  Level Estimated
Mon 12:39:00 35.3599 -97.1603 86° East  Level Estimated
Mon 12:40:00 35.3649 -97.0687 86° East  Level Estimated
Mon 12:41:00 35.3692 -96.9908 86° East  Level Estimated
Mon 12:42:00 35.3734 -96.9129 86° East  Level Estimated
Mon 12:43:00 35.3775 -96.8350 86° East  Level Estimated
Mon 12:44:00 35.3816 -96.7570 86° East  Level Estimated
Mon 12:45:00 35.3857 -96.6790 86° East  Level Estimated
Mon 12:46:00 35.3896 -96.6011 86° East  Level Estimated
Mon 12:47:00 35.3936 -96.5231 86° East  Level Estimated
Mon 12:48:00 35.3975 -96.4451 86° East  Level Estimated
Mon 12:49:00 35.4013 -96.3671 87° East  Level Estimated
Mon 12:50:00 35.4051 -96.2891 87° East  Level Estimated
Mon 12:51:00 35.4088 -96.2112 87° East  Level Estimated
Mon 12:52:00 35.4125 -96.1331 87° East  Level Estimated
Mon 12:53:00 35.4162 -96.0551 87° East  Level Estimated
Mon 12:54:00 35.4198 -95.9771 87° East  Level Estimated
Mon 12:55:00 35.4233 -95.8990 87° East  Level Estimated
Mon 12:56:00 35.4268 -95.8210 87° East  Level Estimated
Mon 12:57:00 35.4302 -95.7430 87° East  Level Estimated
Mon 12:58:00 35.4336 -95.6649 87° East  Level Estimated
Mon 12:59:00 35.4370 -95.5869 87° East  Level Estimated
Mon 13:00:00 35.4403 -95.5088 87° East  Level Estimated
Mon 13:01:00 35.4435 -95.4307 87° East  Level Estimated
Mon 13:02:00 35.4467 -95.3527 87° East  Level Estimated
Mon 13:03:00 35.4498 -95.2746 87° East  Level Estimated
Mon 13:04:00 35.4529 -95.1965 87° East  Level Estimated
Mon 13:05:00 35.4560 -95.1184 87° East  Level Estimated
Mon 13:06:00 35.4589 -95.0403 87° East  Level Estimated
Mon 13:07:00 35.4619 -94.9622 87° East  Level Estimated
Mon 13:08:00 35.4648 -94.8841 87° East  Level Estimated
Mon 13:09:00 35.4676 -94.8059 87° East  Level Estimated
Mon 13:10:00 35.4704 -94.7278 87° East  Level Estimated
Mon 13:11:00 35.4731 -94.6497 88° East  Level Estimated
Mon 13:12:00 35.4758 -94.5716 88° East  Level Estimated
Mon 13:13:00 35.4785 -94.4934 88° East  Level Estimated
Mon 13:14:00 35.4810 -94.4153 88° East  Level Estimated
Mon 13:15:00 35.4836 -94.3371 88° East  Level Estimated
Mon 13:16:00 35.4860 -94.2590 88° East  Level Estimated
Mon 13:17:00 35.4885 -94.1808 88° East  Level Estimated
Mon 13:18:00 35.4908 -94.1027 88° East  Level Estimated
Mon 13:19:00 35.4932 -94.0245 88° East  Level Estimated
Mon 13:20:00 35.4955 -93.9463 88° East  Level Estimated
Mon 13:21:00 35.4977 -93.8681 88° East  Level Estimated
Mon 13:22:00 35.4997 -93.7974 88° East  Level Estimated
Mon 13:23:00 35.5016 -93.7266 88° East  Level Estimated
Mon 13:24:00 35.5035 -93.6558 88° East  Level Estimated
Mon 13:25:00 35.5053 -93.5850 88° East  Level Estimated
Mon 13:26:00 35.5072 -93.5142 88° East  Level Estimated
Mon 13:27:00 35.5089 -93.4433 88° East  Level Estimated
Mon 13:28:00 35.5107 -93.3725 88° East  Level Estimated
Mon 13:29:00 35.5123 -93.3017 88° East  Level Estimated
Mon 13:30:00 35.5140 -93.2309 88° East  Level Estimated
Mon 13:31:00 35.5156 -93.1601 88° East  Level Estimated
Mon 13:32:00 35.5172 -93.0892 88° East  Level Estimated
Mon 13:33:00 35.5187 -93.0184 88° East  Level Estimated
Mon 13:34:00 35.5202 -92.9476 89° East  Level Estimated
Mon 13:35:00 35.5216 -92.8767 89° East  Level Estimated
Mon 13:36:00 35.5230 -92.8059 89° East  Level Estimated
Mon 13:37:00 35.5244 -92.7351 89° East  Level Estimated
Mon 13:38:00 35.5257 -92.6642 89° East  Level Estimated
Mon 13:39:00 35.5269 -92.5934 89° East  Level Estimated
Mon 13:40:00 35.5282 -92.5226 89° East  Level Estimated
Mon 13:41:00 35.5294 -92.4517 89° East  Level Estimated
Mon 13:42:00 35.5305 -92.3809 89° East  Level Estimated
Mon 13:43:00 35.5316 -92.3100 89° East  Level Estimated
Mon 13:44:00 35.5327 -92.2392 89° East  Level Estimated
Mon 13:45:00 35.5337 -92.1683 89° East  Level Estimated
Mon 13:46:00 35.5347 -92.0974 89° East  Level Estimated
Mon 13:47:00 35.5356 -92.0266 89° East  Level Estimated
Mon 13:48:00 35.5365 -91.9557 89° East  Level Estimated
Mon 13:49:00 35.5374 -91.8849 89° East  Level Estimated
Mon 13:50:00 35.5382 -91.8140 89° East  Level Estimated
Mon 13:51:00 35.5390 -91.7431 89° East  Level Estimated
Mon 13:52:00 35.5397 -91.6723 89° East  Level Estimated
Mon 13:53:00 35.5404 -91.6014 89° East  Level Estimated
Mon 13:54:00 35.5411 -91.5305 89° East  Level Estimated
Mon 13:55:00 35.5417 -91.4597 89° East  Level Estimated
Mon 13:56:00 35.5422 -91.3888 89° East  Level Estimated
Mon 13:57:00 35.5428 -91.3179 89° East  Level Estimated
Mon 13:58:00 35.5433 -91.2470 89° East  Level Estimated
Mon 13:59:00 35.5437 -91.1762 90° East  Level Estimated
Mon 14:00:00 35.5441 -91.1053 90° East  Level Estimated
Mon 14:01:00 35.5445 -91.0344 90° East  Level Estimated
Mon 14:02:00 35.5448 -90.9636 90° East  Level Estimated
Mon 14:03:00 35.5451 -90.8927 90° East  Level Estimated
Mon 14:04:00 35.5453 -90.8218 90° East  Level Estimated
Mon 14:05:00 35.5455 -90.7509 90° East  Level Estimated
Mon 14:06:00 35.5457 -90.6801 90° East  Level Estimated
Mon 14:07:00 35.5458 -90.6092 90° East  Level Estimated
Mon 14:08:00 35.5458 -90.5383 90° East  Level Estimated
Mon 14:09:00 35.5459 -90.4674 90° East  Level Estimated
Mon 14:10:00 35.5458 -90.3965 90° East  Level Estimated
Mon 14:11:00 35.5458 -90.3257 90° East  Level Estimated
Mon 14:12:00 35.5457 -90.2548 90° East  Level Estimated
Mon 14:13:00 35.5456 -90.1839 90° East  Level Estimated
Mon 14:14:00 35.5454 -90.1130 90° East  Level Estimated
Mon 14:15:00 35.5452 -90.0421 90° East  Level Estimated
Mon 14:16:00 35.5449 -89.9713 90° East  Level Estimated
Mon 14:17:00 35.5446 -89.9004 90° East  Level Estimated
Mon 14:18:00 35.5443 -89.8295 90° East  Level Estimated
Mon 14:19:00 35.5439 -89.7586 90° East  Level Estimated
Mon 14:20:00 35.5435 -89.6878 90° East  Level Estimated
Mon 14:21:00 35.5430 -89.6169 90° East  Level Estimated
Mon 14:22:00 35.5425 -89.5460 90° East  Level Estimated
Mon 14:23:00 35.5419 -89.4752 91° East  Level Estimated
Mon 14:24:00 35.5413 -89.4043 91° East  Level Estimated
Mon 14:25:00 35.5407 -89.3334 91° East  Level Estimated
Mon 14:26:00 35.5400 -89.2625 91° East  Level Estimated
Mon 14:27:00 35.5393 -89.1917 91° East  Level Estimated
Mon 14:28:00 35.5386 -89.1208 91° East  Level Estimated
Mon 14:29:00 35.5378 -89.0499 91° East  Level Estimated
Mon 14:30:00 35.5369 -88.9791 91° East  Level Estimated
Mon 14:31:00 35.5360 -88.9082 91° East  Level Estimated
Mon 14:32:00 35.5351 -88.8374 91° East  Level Estimated
Mon 14:33:00 35.5341 -88.7665 91° East  Level Estimated
Mon 14:34:00 35.5331 -88.6956 91° East  Level Estimated
Mon 14:35:00 35.5321 -88.6248 91° East  Level Estimated
Mon 14:36:00 35.5310 -88.5539 91° East  Level Estimated
Mon 14:37:00 35.5299 -88.4831 91° East  Level Estimated
Mon 14:38:00 35.5287 -88.4122 91° East  Level Estimated
Mon 14:39:00 35.5275 -88.3414 91° East  Level Estimated
Mon 14:40:00 35.5262 -88.2706 91° East  Level Estimated
Mon 14:41:00 35.5249 -88.1997 91° East  Level Estimated
Mon 14:42:00 35.5236 -88.1289 91° East  Level Estimated
Mon 14:43:00 35.5222 -88.0580 91° East  Level Estimated
Mon 14:44:00 35.5208 -87.9872 91° East  Level Estimated
Mon 14:45:00 35.5193 -87.9164 91° East  Level Estimated
Mon 14:46:00 35.5178 -87.8456 91° East  Level Estimated
Mon 14:47:00 35.5163 -87.7747 92° East  Level Estimated
Mon 14:48:00 35.5147 -87.7039 92° East  Level Estimated
Mon 14:49:00 35.5131 -87.6331 92° East  Level Estimated
Mon 14:50:00 35.5114 -87.5623 92° East  Level Estimated
Mon 14:51:00 35.5097 -87.4914 92° East  Level Estimated
Mon 14:52:00 35.5079 -87.4206 92° East  Level Estimated
Mon 14:53:00 35.5061 -87.3498 92° East  Level Estimated
Mon 14:54:00 35.5043 -87.2790 92° East  Level Estimated
Mon 14:55:00 35.5024 -87.2082 92° East  Level Estimated
Mon 14:56:00 35.5005 -87.1374 92° East  Level Estimated
Mon 14:57:00 35.4985 -87.0666 92° East  Level Estimated
Mon 14:58:00 35.4965 -86.9958 92° East  Level Estimated
Mon 14:59:00 35.4945 -86.9250 92° East  Level Estimated
Mon 15:00:00 35.4924 -86.8543 92° East  Level Estimated
Mon 15:01:00 35.4903 -86.7835 92° East  Level Estimated
Mon 15:02:00 35.4881 -86.7127 92° East  Level Estimated
Mon 15:03:00 35.4859 -86.6419 92° East  Level Estimated
Mon 15:04:00 35.4837 -86.5712 92° East  Level Estimated
Mon 15:05:00 35.4814 -86.5004 92° East  Level Estimated
Mon 15:06:00 35.4790 -86.4296 92° East  Level Estimated
Mon 15:07:00 35.4767 -86.3589 92° East  Level Estimated
Mon 15:08:00 35.4743 -86.2881 92° East  Level Estimated
Mon 15:09:00 35.4718 -86.2174 92° East  Level Estimated
Mon 15:10:00 35.4693 -86.1466 92° East  Level Estimated
Mon 15:11:00 35.4668 -86.0759 93° East  Level Estimated
Mon 15:12:00 35.4642 -86.0051 93° East  Level Estimated
Mon 15:13:00 35.4616 -85.9344 93° East  Level Estimated
Mon 15:14:00 35.4589 -85.8637 93° East  Level Estimated
Mon 15:15:00 35.4562 -85.7930 93° East  Level Estimated
Mon 15:16:00 35.4535 -85.7223 93° East  Level Estimated
Mon 15:17:00 35.4507 -85.6515 93° East  Level Estimated
Mon 15:18:00 35.4479 -85.5808 93° East  Level Estimated
Mon 15:19:00 35.4450 -85.5101 93° East  Level Estimated
Mon 15:20:00 35.4421 -85.4394 93° East  Level Estimated
Mon 15:21:00 35.4391 -85.3687 93° East  Level Estimated
Mon 15:22:00 35.4361 -85.2980 93° East  Level Estimated
Mon 15:23:00 35.4331 -85.2274 93° East  Level Estimated
Mon 15:24:00 35.4300 -85.1567 93° East  Level Estimated
Mon 15:25:00 35.4269 -85.0860 93° East  Level Estimated
Mon 15:26:00 35.4238 -85.0154 93° East  Level Estimated
Mon 15:27:00 35.4206 -84.9447 93° East  Level Estimated
Mon 15:28:00 35.4173 -84.8740 93° East  Level Estimated
Mon 15:29:00 35.4141 -84.8034 93° East  Level Estimated
Mon 15:30:00 35.4107 -84.7328 93° East  Level Estimated
Mon 15:31:00 35.4074 -84.6621 93° East  Level Estimated
Mon 15:32:00 35.4040 -84.5915 93° East  Level Estimated
Mon 15:33:00 35.4005 -84.5209 93° East  Level Estimated
Mon 15:34:00 35.3970 -84.4502 93° East  Level Estimated
Mon 15:35:00 35.3935 -84.3796 93° East  Level Estimated
Mon 15:36:00 35.3899 -84.3090 94° East  Level Estimated
Mon 15:37:00 35.3863 -84.2384 94° East  Level Estimated
Mon 15:38:00 35.3827 -84.1678 94° East  Level Estimated
Mon 15:39:00 35.3790 -84.0973 94° East  Level Estimated
Mon 15:40:00 35.3753 -84.0267 94° East  Level Estimated
Mon 15:41:00 35.3715 -83.9561 94° East  Level Estimated
Mon 15:42:00 35.3677 -83.8855 94° East  Level Estimated
Mon 15:43:00 35.3638 -83.8150 94° East  Level Estimated
Mon 15:44:00 35.3599 -83.7444 94° East  Level Estimated
Mon 15:45:00 35.3560 -83.6739 94° East  Level Estimated
Mon 15:46:00 35.3520 -83.6033 94° East  Level Estimated
Mon 15:47:00 35.3480 -83.5328 94° East  Level Estimated
Mon 15:48:00 35.3439 -83.4623 94° East  Level Estimated
Mon 15:49:00 35.3398 -83.3917 94° East  Level Estimated
Mon 15:50:00 35.3357 -83.3212 94° East  Level Estimated
Mon 15:51:00 35.3315 -83.2507 94° East  Level Estimated
Mon 15:52:00 35.3273 -83.1802 94° East  Level Estimated
Mon 15:53:00 35.3230 -83.1097 94° East  Level Estimated
Mon 15:54:00 35.3187 -83.0393 94° East  Level Estimated
Mon 15:55:00 35.3144 -82.9688 94° East  Level Estimated
Mon 15:56:00 35.3100 -82.8983 94° East  Level Estimated
Mon 15:57:00 35.3056 -82.8279 94° East  Level Estimated
Mon 15:58:00 35.3011 -82.7574 94° East  Level Estimated
Mon 15:59:00 35.2966 -82.6870 94° East  Level Estimated
Mon 16:00:00 35.2920 -82.6165 95° East  Level Estimated
Mon 16:01:00 35.2874 -82.5461 95° East  Level Estimated
Mon 16:02:00 35.2828 -82.4757 95° East  Level Estimated
Mon 16:03:00 35.2781 -82.4053 95° East  Level Estimated
Mon 16:04:00 35.2734 -82.3349 95° East  Level Estimated
Mon 16:05:00 35.2687 -82.2645 95° East  Level Estimated
Mon 16:06:00 35.2639 -82.1941 95° East  Level Estimated
Mon 16:07:00 35.2590 -82.1237 95° East  Level Estimated
Mon 16:08:00 35.2542 -82.0533 95° East  Level Estimated
Mon 16:09:00 35.2492 -81.9830 95° East  Level Estimated
Mon 16:10:00 35.2443 -81.9126 95° East  Level Estimated
Mon 16:11:00 35.2393 -81.8423 95° East  Level Estimated
Mon 16:12:00 35.2342 -81.7719 95° East  Level Estimated
Mon 16:13:00 35.2292 -81.7016 95° East  Level Estimated
Mon 16:14:00 35.2240 -81.6313 95° East  Level Estimated
Mon 16:15:00 35.2189 -81.5610 95° East  Level Estimated
Mon 16:16:00 35.2137 -81.4907 95° East  Level Estimated
Mon 16:17:00 35.2085 -81.4204 95° East  Level Estimated
Mon 16:18:00 35.2032 -81.3501 95° East  Level Estimated
Mon 16:19:00 35.1978 -81.2798 95° East  Level Estimated
Mon 16:20:00 35.1925 -81.2096 95° East  Level Estimated
Mon 16:21:00 35.1871 -81.1393 95° East  Level Estimated
Mon 16:22:00 35.1816 -81.0691 95° East  Level Estimated
Mon 16:23:00 35.1761 -80.9988 95° East  Level Estimated
Mon 16:24:00 35.1706 -80.9286 95° East  Level Estimated
Mon 16:25:00 35.1650 -80.8584 96° East  Level Estimated
Mon 16:26:00 35.1594 -80.7882 96° East  Level Estimated
Mon 16:27:00 35.1538 -80.7180 96° East  Level Estimated
Mon 16:28:00 35.1481 -80.6478 96° East  Level Estimated
Mon 16:29:00 35.1424 -80.5776 96° East  Level Estimated
Mon 16:30:00 35.1366 -80.5074 96° East  Level Estimated
Mon 16:31:00 35.1308 -80.4373 96° East  Level Estimated
Mon 16:32:00 35.1249 -80.3671 96° East  Level Estimated
Mon 16:33:00 35.1190 -80.2970 96° East  Level Estimated
Mon 16:34:00 35.1131 -80.2269 96° East  Level Estimated
Mon 16:35:00 35.1071 -80.1568 96° East  Level Estimated
Mon 16:36:00 35.1011 -80.0866 96° East  Level Estimated
Mon 16:37:00 35.0951 -80.0165 96° East  Level Estimated
Mon 16:38:00 35.0890 -79.9464 96° East  Level Estimated
Mon 16:39:00 35.0829 -79.8764 96° East  Level Estimated
Mon 16:40:00 35.0767 -79.8063 96° East  Level Estimated
Mon 16:41:00 35.0705 -79.7363 96° East  Level Estimated
Mon 16:42:00 35.0642 -79.6662 96° East  Level Estimated
Mon 16:43:00 35.0579 -79.5962 96° East  Level Estimated
Mon 16:44:00 35.0516 -79.5262 96° East  Level Estimated
Mon 16:45:00 35.0452 -79.4561 96° East  Level Estimated
Mon 16:46:00 35.0388 -79.3861 96° East  Level Estimated
Mon 16:47:00 35.0323 -79.3162 96° East  Level Estimated
Mon 16:48:00 35.0258 -79.2462 96° East  Level Estimated
Mon 16:49:00 35.0193 -79.1762 96° East  Level Estimated
Mon 16:50:00 35.0127 -79.1062 97° East  Level Estimated
Mon 16:51:00 35.0061 -79.0363 97° East  Level Estimated
Mon 16:52:00 34.9995 -78.9664 97° East  Level Estimated
Mon 16:53:00 34.9928 -78.8965 97° East  Level Estimated
Mon 16:54:00 34.9912 -78.8803 97° East  Level Estimated
Mon 16:55:00 34.9912 -78.8803 39° Northeast  Level Estimated
Mon 16:56:00 34.9912 -78.8803 39° Northeast  Level Estimated
Mon 16:57:00 34.9912 -78.8803 39° Northeast  Level Estimated
Mon 16:58:00 34.9912 -78.8803 39° Northeast  Level Estimated
Mon 16:59:00 34.9912 -78.8803 39° Northeast  Level Estimated
Mon 17:00:00 34.9912 -78.8803 39° Northeast  Level Estimated
Mon 17:01:00 34.9912 -78.8803 39° Northeast  Level Estimated
Mon 17:02:00 34.9912 -78.8803 39° Northeast  Level Estimated
Mon 17:03:00 34.9912 -78.8803 39° Northeast  Level Estimated
Mon 17:04:00 34.9912 -78.8803 39° Northeast  Level Estimated
Mon 17:05:00 34.9912 -78.8803 39° Northeast  Level Estimated
Mon 17:06:00 34.9912 -78.8803 39° Northeast  Level Estimated
Mon 17:07:00 34.9912 -78.8803 39° Northeast  Level Estimated
Mon 17:08:00 34.9912 -78.8803 39° Northeast  Level Estimated
Mon 17:09:00 34.9912 -78.8803 39° Northeast  Level Estimated
Mon 17:10:00 34.9912 -78.8803 39° Northeast  Level Estimated
Mon 17:11:00 34.9912 -78.8803 39° Northeast  Level Estimated
Mon 17:12:00 34.9912 -78.8803 39° Northeast  Level Estimated
Mon 17:13:00 34.9912 -78.8803 39° Northeast  Level Estimated
Mon 17:14:00 34.9912 -78.8803 39° Northeast  Level Estimated
Mon 17:15:00 34.9912 -78.8803 39° Northeast  Level Estimated
Mon 17:16:00 34.9912 -78.8803 39° Northeast  Level Estimated
Mon 17:17:00 34.9912 -78.8803 39° Northeast  Level Estimated
Mon 17:18:00 34.9912 -78.8803 39° Northeast  Level Estimated
Mon 17:19:00 34.9912 -78.8803 39° Northeast  Level Estimated
Mon 17:20:00 34.9912 -78.8803 39° Northeast  Level Estimated
Mon 17:21:00 34.9912 -78.8803 39° Northeast  Level Estimated
Mon 17:22:00 34.9912 -78.8803 39° Northeast  Level Estimated
Mon 17:23:00 34.9912 -78.8803 39° Northeast  Level Estimated
Mon 17:24:00 34.9912 -78.8803 39° Northeast  Level Estimated
Mon 17:25:00 34.9912 -78.8803 39° Northeast  Level Estimated
Mon 17:26:00 34.9912 -78.8803 39° Northeast  Level Estimated
Mon 17:27:00 34.9912 -78.8803 39° Northeast  Level Estimated
Mon 17:28:00 34.9912 -78.8803 39° Northeast  Level Estimated
Mon 17:29:00 34.9912 -78.8803 39° Northeast  Level Estimated
Mon 17:30:00 34.9912 -78.8803 39° Northeast  Level Estimated
Mon 17:31:00 34.9912 -78.8803 39° Northeast  Level Estimated
Mon 17:32:00 34.9912 -78.8803 39° Northeast  Level Estimated
Mon 17:33:00 34.9912 -78.8803 39° Northeast  Level Estimated
Mon 17:34:00 34.9912 -78.8803 39° Northeast  Level Estimated
Mon 17:35:00 34.9912 -78.8803 39° Northeast  Level Estimated
Mon 17:36:00 34.9912 -78.8803 39° Northeast  Level Estimated
Mon 17:37:00 34.9912 -78.8803 39° Northeast  Level Estimated
Mon 17:38:00 34.9912 -78.8803 39° Northeast  Level Estimated
Mon 17:39:00 34.9912 -78.8803 39° Northeast  Level Estimated
Mon 17:40:00 34.9912 -78.8803 39° Northeast  Level Estimated
Mon 17:41:00 34.9912 -78.8803 39° Northeast  Level Estimated
Mon 17:42:00 34.9912 -78.8803 39° Northeast  Level Estimated
Mon 17:43:00 34.9912 -78.8803 39° Northeast  Level Estimated
Mon 17:44:00 34.9912 -78.8803 39° Northeast  Level Estimated
Mon 17:45:00 34.9912 -78.8803 39° Northeast  Level Estimated
Mon 17:46:00 34.9912 -78.8803 39° Northeast  Level Estimated
Mon 17:47:00 34.9912 -78.8803 39° Northeast  Level Estimated
Mon 17:48:00 34.9912 -78.8803 39° Northeast  Level Estimated
Mon 17:49:00 34.9912 -78.8803 39° Northeast  Level Estimated
Mon 17:50:00 34.9912 -78.8803 39° Northeast  Level Estimated
Mon 17:51:00 34.9912 -78.8803 39° Northeast  Level Estimated
Mon 17:52:00 34.9912 -78.8803 39° Northeast  Level Estimated
Mon 17:53:00 34.9912 -78.8803 39° Northeast  Level Estimated
Mon 17:54:00 34.9912 -78.8803 39° Northeast  Level Estimated
Mon 17:55:00 34.9912 -78.8803 39° Northeast  Level Estimated
Mon 17:56:00 34.9912 -78.8803 39° Northeast  Level Estimated
Mon 17:57:00 34.9912 -78.8803 39° Northeast  Level Estimated
Mon 17:58:00 34.9912 -78.8803 39° Northeast  Level Estimated
Mon 17:59:00 34.9912 -78.8803 39° Northeast  Level Estimated

Login

Don't have an account? Register now (free) for customized features, flight alerts, and more!